Time;durP1;ratioP1;P1;durP2;ratioP2;P2;SDS_P1;SDS_P2;PMS_P1;PMS_P2;Temp;Humidity;BMP_temperature;BMP_pressure;BME280_temperature;BME280_humidity;BME280_pressure;Samples;Min_cycle;Max_cycle;Signal;HPM_P1;HPM_P2
2022/09/01 00:01:55;;;;;;;;;;;16.50;99.90;;;;;;5014256;28;19932;-78
2022/09/01 00:04:24;;;;;;;;;;;16.40;99.90;;;;;;5047675;28;19926;-78
2022/09/01 00:06:50;;;;;;;;;;;16.40;99.90;;;;;;5014333;28;19929;-78
2022/09/01 00:09:17;;;;;;;;;;;16.40;99.90;;;;;;5013817;28;20274;-78
2022/09/01 00:11:44;;;;;;;;;;;16.40;99.90;;;;;;5013974;28;20367;-78
2022/09/01 00:14:10;;;;;;;;;;;16.30;99.90;;;;;;5013845;28;20072;-78
2022/09/01 00:16:36;;;;;;;;;;;16.30;99.90;;;;;;5013604;28;19933;-78
2022/09/01 00:19:02;;;;;;;;;;;16.30;99.90;;;;;;5013516;28;19926;-78
2022/09/01 00:21:30;;;;;;;;;;;16.20;99.90;;;;;;5014039;28;19936;-78
2022/09/01 00:23:55;;;;;;;;;;;16.20;99.90;;;;;;5013412;28;19925;-78
2022/09/01 00:26:21;;;;;;;;;;;16.20;99.90;;;;;;5013491;28;19926;-78
2022/09/01 00:28:46;;;;;;;;;;;16.20;99.90;;;;;;5013562;28;20009;-79
2022/09/01 00:31:15;;;;;;;;;;;16.10;99.90;;;;;;5013579;28;20001;-78
2022/09/01 00:33:41;;;;;;;;;;;16.10;99.90;;;;;;5013536;28;19929;-78
2022/09/01 00:36:07;;;;;;;;;;;16.10;99.90;;;;;;5013659;28;20302;-78
2022/09/01 00:38:33;;;;;;;;;;;16.00;99.90;;;;;;5013458;28;19925;-78
2022/09/01 00:40:59;;;;;;;;;;;16.00;99.90;;;;;;5029912;28;20281;-79
2022/09/01 00:43:45;;;;;;;;;;;16.00;99.90;;;;;;5029529;28;19925;-78
2022/09/01 00:46:12;;;;;;;;;;;15.90;99.90;;;;;;5013278;28;19932;-78
2022/09/01 00:48:38;;;;;;;;;;;15.90;99.90;;;;;;5012946;28;19993;-78
2022/09/01 00:51:05;;;;;;;;;;;15.80;99.90;;;;;;4996641;28;19934;-79
2022/09/01 00:53:31;;;;;;;;;;;15.80;99.90;;;;;;5013176;28;19934;-78
2022/09/01 00:55:56;;;;;;;;;;;15.70;99.90;;;;;;5013194;28;19925;-78
2022/09/01 00:58:22;;;;;;;;;;;15.70;99.90;;;;;;5046965;28;20345;-78
2022/09/01 01:00:49;;;;;;;;;;;15.60;99.90;;;;;;5013839;28;19925;-78
2022/09/01 01:03:15;;;;;;;;;;;15.70;99.90;;;;;;5013076;28;19933;-78
2022/09/01 01:05:53;;;;;;;;;;;15.60;99.90;;;;;;5012536;28;19925;-78
2022/09/01 01:08:32;;;;;;;;;;;15.60;99.90;;;;;;5013831;28;19933;-78
2022/09/01 01:11:08;;;;;;;;;;;15.60;99.90;;;;;;5011924;28;19933;-78
2022/09/01 01:13:48;;;;;;;;;;;15.50;99.90;;;;;;5012737;28;19975;-78
2022/09/01 01:16:14;;;;;;;;;;;15.60;99.90;;;;;;4996623;28;19926;-78
2022/09/01 01:18:40;;;;;;;;;;;15.50;99.90;;;;;;5046058;28;20366;-78
2022/09/01 01:23:56;;;;;;;;;;;15.50;99.90;;;;;;5046199;28;20075;-78
2022/09/01 01:26:22;;;;;;;;;;;15.50;99.90;;;;;;5029565;28;19952;-78
2022/09/01 01:28:49;;;;;;;;;;;15.40;99.90;;;;;;5012721;28;19925;-78
2022/09/01 01:31:17;;;;;;;;;;;15.40;99.90;;;;;;5046010;28;19973;-78
2022/09/01 01:33:44;;;;;;;;;;;15.40;99.90;;;;;;5012800;28;20020;-78
2022/09/01 01:36:13;;;;;;;;;;;15.40;99.90;;;;;;5012740;28;20443;-78
2022/09/01 01:38:41;;;;;;;;;;;15.30;99.90;;;;;;5012770;28;19932;-78
2022/09/01 01:41:07;;;;;;;;;;;15.30;99.90;;;;;;5012928;28;19925;-78
2022/09/01 01:43:33;;;;;;;;;;;15.30;99.90;;;;;;5012991;28;19959;-78
2022/09/01 01:46:01;;;;;;;;;;;15.30;99.90;;;;;;4996275;28;20016;-78
2022/09/01 01:48:27;;;;;;;;;;;15.30;99.90;;;;;;5029374;28;19926;-79
2022/09/01 01:50:53;;;;;;;;;;;15.30;99.90;;;;;;5028858;28;20264;-78
2022/09/01 01:53:19;;;;;;;;;;;15.30;99.90;;;;;;5029772;28;19971;-78
2022/09/01 01:55:48;;;;;;;;;;;15.20;99.90;;;;;;5012298;28;19931;-78
2022/09/01 01:58:14;;;;;;;;;;;15.20;99.90;;;;;;5029039;28;20020;-78
2022/09/01 02:00:42;;;;;;;;;;;15.10;99.90;;;;;;5013206;28;20312;-78
2022/09/01 02:03:08;;;;;;;;;;;15.10;99.90;;;;;;5045532;28;20024;-78
2022/09/01 02:05:34;;;;;;;;;;;15.10;99.90;;;;;;5012757;28;19969;-78
2022/09/01 02:08:03;;;;;;;;;;;15.10;99.90;;;;;;5012445;28;20313;-79
2022/09/01 02:10:31;;;;;;;;;;;15.00;99.90;;;;;;5012159;28;19925;-78
2022/09/01 02:13:02;;;;;;;;;;;15.00;99.90;;;;;;5012469;28;19933;-78
2022/09/01 02:15:27;;;;;;;;;;;15.00;99.90;;;;;;5012732;28;19933;-78
2022/09/01 02:17:55;;;;;;;;;;;14.90;99.90;;;;;;5012335;28;19926;-78
2022/09/01 02:20:21;;;;;;;;;;;14.90;99.90;;;;;;5012599;28;19932;-78
2022/09/01 02:22:47;;;;;;;;;;;14.90;99.90;;;;;;5048649;28;19921;-78
2022/09/01 02:25:15;;;;;;;;;;;14.90;99.90;;;;;;4999658;28;20404;-78
2022/09/01 02:27:42;;;;;;;;;;;14.90;99.90;;;;;;5016560;28;19925;-78
2022/09/01 02:30:09;;;;;;;;;;;14.90;99.90;;;;;;5048383;28;19937;-78
2022/09/01 02:32:34;;;;;;;;;;;14.90;99.90;;;;;;5048566;28;20493;-78
2022/09/01 02:35:00;;;;;;;;;;;15.00;99.90;;;;;;5015527;28;19996;-78
2022/09/01 02:37:25;;;;;;;;;;;15.00;99.90;;;;;;5015727;28;19926;-78
2022/09/01 02:39:58;;;;;;;;;;;15.00;99.90;;;;;;5015690;28;19976;-78
2022/09/01 02:42:26;;;;;;;;;;;15.00;99.90;;;;;;5015848;28;19925;-78
2022/09/01 02:44:52;;;;;;;;;;;15.00;99.90;;;;;;5032085;28;19952;-78
2022/09/01 02:47:18;;;;;;;;;;;15.00;99.90;;;;;;5015540;28;19926;-77
2022/09/01 02:49:45;;;;;;;;;;;15.10;99.90;;;;;;5015279;28;19922;-79
2022/09/01 02:52:14;;;;;;;;;;;15.10;99.90;;;;;;5048890;28;19925;-78
2022/09/01 02:54:40;;;;;;;;;;;15.10;99.90;;;;;;5048678;28;20378;-78
2022/09/01 02:57:07;;;;;;;;;;;15.10;99.90;;;;;;5031849;28;19926;-79
2022/09/01 02:59:36;;;;;;;;;;;15.10;99.90;;;;;;5015263;28;19925;-78
2022/09/01 03:02:01;;;;;;;;;;;15.10;99.90;;;;;;5048380;28;19925;-78
2022/09/01 03:04:33;;;;;;;;;;;15.10;99.90;;;;;;4998569;28;19949;-78
2022/09/01 03:06:59;;;;;;;;;;;15.10;99.90;;;;;;4999642;28;19925;-78
2022/09/01 03:09:25;;;;;;;;;;;15.10;99.90;;;;;;5014973;28;20377;-78
2022/09/01 03:11:51;;;;;;;;;;;15.10;99.90;;;;;;5015226;28;19965;-78
2022/09/01 03:14:17;;;;;;;;;;;15.00;99.90;;;;;;5014950;28;19926;-78
2022/09/01 03:16:43;;;;;;;;;;;15.00;99.90;;;;;;5031610;28;19933;-78
2022/09/01 03:19:10;;;;;;;;;;;15.00;99.90;;;;;;5014809;28;20251;-78
2022/09/01 03:21:40;;;;;;;;;;;15.00;99.90;;;;;;5014925;28;20059;-79
2022/09/01 03:24:07;;;;;;;;;;;15.10;99.90;;;;;;5014794;28;19926;-78
2022/09/01 03:26:35;;;;;;;;;;;15.00;99.90;;;;;;4999182;28;20052;-79
2022/09/01 03:29:01;;;;;;;;;;;15.10;99.90;;;;;;5048485;28;20388;-78
2022/09/01 03:31:27;;;;;;;;;;;15.10;99.90;;;;;;5014721;28;19925;-78
2022/09/01 03:33:55;;;;;;;;;;;15.10;99.90;;;;;;5030015;28;20383;-78
2022/09/01 03:36:22;;;;;;;;;;;15.10;99.90;;;;;;4998241;28;19926;-79
2022/09/01 03:38:48;;;;;;;;;;;15.10;99.90;;;;;;5014605;28;20220;-79
2022/09/01 03:41:16;;;;;;;;;;;15.10;99.90;;;;;;5014311;28;19976;-78
2022/09/01 03:43:42;;;;;;;;;;;15.10;99.90;;;;;;5014389;28;19926;-78
2022/09/01 03:46:09;;;;;;;;;;;15.10;99.90;;;;;;5030912;28;19999;-78
2022/09/01 03:48:34;;;;;;;;;;;15.10;99.90;;;;;;5014627;28;20359;-78
2022/09/01 03:51:03;;;;;;;;;;;15.10;99.90;;;;;;5014224;28;20012;-79
2022/09/01 03:53:30;;;;;;;;;;;15.00;99.90;;;;;;5047450;28;19932;-78
2022/09/01 03:55:56;;;;;;;;;;;15.00;99.90;;;;;;5030755;28;20039;-78
2022/09/01 03:58:22;;;;;;;;;;;15.00;99.90;;;;;;5046810;28;20003;-79
2022/09/01 04:00:51;;;;;;;;;;;15.00;99.90;;;;;;5030485;28;19926;-78
2022/09/01 04:03:21;;;;;;;;;;;15.00;99.90;;;;;;5014549;28;20285;-79
2022/09/01 04:05:48;;;;;;;;;;;14.90;99.90;;;;;;5046711;28;19959;-78
2022/09/01 04:08:13;;;;;;;;;;;14.90;99.90;;;;;;5014774;28;20071;-79
2022/09/01 04:10:59;;;;;;;;;;;14.90;99.90;;;;;;4997325;28;20421;-78
2022/09/01 04:13:34;;;;;;;;;;;14.90;99.90;;;;;;5014345;28;20058;-78
2022/09/01 04:15:59;;;;;;;;;;;14.80;99.90;;;;;;4997864;28;19926;-78
2022/09/01 04:18:25;;;;;;;;;;;14.80;99.90;;;;;;4997480;28;19933;-78
2022/09/01 04:20:55;;;;;;;;;;;14.80;99.90;;;;;;4997666;28;20043;-78
2022/09/01 04:23:25;;;;;;;;;;;14.80;99.90;;;;;;5013550;28;20365;-78
2022/09/01 04:25:55;;;;;;;;;;;14.80;99.90;;;;;;5013716;28;19936;-78
2022/09/01 04:28:25;;;;;;;;;;;14.70;99.90;;;;;;5013751;28;19930;-79
2022/09/01 04:30:54;;;;;;;;;;;14.70;99.90;;;;;;5013288;28;20472;-78
2022/09/01 04:33:21;;;;;;;;;;;14.60;99.90;;;;;;5047070;28;19929;-79
2022/09/01 04:35:49;;;;;;;;;;;14.60;99.90;;;;;;5047435;28;19979;-78
2022/09/01 04:38:14;;;;;;;;;;;14.60;99.90;;;;;;5046665;28;19925;-78
2022/09/01 04:40:41;;;;;;;;;;;14.60;99.90;;;;;;5013617;28;19940;-78
2022/09/01 04:43:06;;;;;;;;;;;14.60;99.90;;;;;;4997411;28;20354;-78
2022/09/01 04:45:35;;;;;;;;;;;14.60;99.90;;;;;;5013314;28;19925;-78
2022/09/01 04:48:04;;;;;;;;;;;14.60;99.90;;;;;;5013083;28;19929;-79
2022/09/01 04:50:31;;;;;;;;;;;14.60;99.90;;;;;;5012981;28;20309;-77
2022/09/01 04:53:00;;;;;;;;;;;14.50;99.90;;;;;;5046260;28;19925;-78
2022/09/01 04:55:28;;;;;;;;;;;14.50;99.90;;;;;;5029905;28;20344;-79
2022/09/01 04:57:56;;;;;;;;;;;14.50;99.90;;;;;;5029754;28;19976;-78
2022/09/01 05:00:22;;;;;;;;;;;14.40;99.90;;;;;;5013144;28;20022;-78
2022/09/01 05:02:50;;;;;;;;;;;14.40;99.90;;;;;;5013845;28;19926;-78
2022/09/01 05:05:17;;;;;;;;;;;14.40;99.90;;;;;;5045932;28;19925;-79
2022/09/01 05:07:42;;;;;;;;;;;14.40;99.90;;;;;;5045841;28;19933;-79
2022/09/01 05:10:08;;;;;;;;;;;14.40;99.90;;;;;;5013536;28;19925;-80
2022/09/01 05:12:34;;;;;;;;;;;14.30;99.90;;;;;;5013278;28;20282;-78
2022/09/01 05:15:05;;;;;;;;;;;14.30;99.90;;;;;;5030213;28;19936;-79
2022/09/01 05:17:31;;;;;;;;;;;14.30;99.90;;;;;;5029163;28;19937;-79
2022/09/01 05:19:57;;;;;;;;;;;14.30;99.90;;;;;;5013727;28;19925;-79
2022/09/01 05:22:22;;;;;;;;;;;14.30;99.90;;;;;;5012876;28;19948;-78
2022/09/01 05:24:50;;;;;;;;;;;14.30;99.90;;;;;;5012625;28;19985;-78
2022/09/01 05:27:17;;;;;;;;;;;14.30;99.90;;;;;;5045963;28;19926;-79
2022/09/01 05:29:45;;;;;;;;;;;14.30;99.90;;;;;;5012649;28;20280;-78
2022/09/01 05:32:11;;;;;;;;;;;14.30;99.90;;;;;;4996401;28;19932;-78
2022/09/01 05:34:38;;;;;;;;;;;14.30;99.90;;;;;;5012698;28;20024;-78
2022/09/01 05:37:05;;;;;;;;;;;14.40;99.90;;;;;;5012763;28;19932;-78
2022/09/01 05:39:31;;;;;;;;;;;14.40;99.90;;;;;;5012777;28;19987;-78
2022/09/01 05:42:00;;;;;;;;;;;14.40;99.90;;;;;;5012979;28;19929;-78
2022/09/01 05:44:26;;;;;;;;;;;14.40;99.90;;;;;;5012545;28;20028;-78
2022/09/01 05:46:52;;;;;;;;;;;14.50;99.90;;;;;;5012541;28;20020;-78
2022/09/01 05:49:17;;;;;;;;;;;14.50;99.90;;;;;;5028974;28;19952;-79
2022/09/01 05:51:48;;;;;;;;;;;14.60;99.90;;;;;;5045768;28;19926;-79
2022/09/01 05:54:15;;;;;;;;;;;14.60;99.90;;;;;;5012704;28;19925;-78
2022/09/01 05:56:42;;;;;;;;;;;14.70;99.90;;;;;;5048158;28;19930;-85
2022/09/01 05:59:09;;;;;;;;;;;14.70;99.90;;;;;;5049873;28;19933;-82
2022/09/01 06:01:38;;;;;;;;;;;14.80;99.90;;;;;;4999788;28;19984;-80
2022/09/01 06:04:04;;;;;;;;;;;14.80;99.90;;;;;;5049329;28;19926;-80
2022/09/01 06:06:36;;;;;;;;;;;14.90;99.90;;;;;;5049709;28;19936;-79
2022/09/01 06:09:03;;;;;;;;;;;14.90;99.90;;;;;;5000182;28;19933;-80
2022/09/01 06:11:31;;;;;;;;;;;15.00;99.90;;;;;;5016072;28;19925;-80
2022/09/01 06:13:57;;;;;;;;;;;15.00;99.90;;;;;;5049368;28;20340;-80
2022/09/01 06:16:23;;;;;;;;;;;15.10;99.90;;;;;;5049050;28;20066;-80
2022/09/01 06:18:51;;;;;;;;;;;15.20;99.90;;;;;;5016269;28;20325;-81
2022/09/01 06:21:17;;;;;;;;;;;15.20;99.90;;;;;;5016096;28;19930;-83
2022/09/01 06:23:43;;;;;;;;;;;15.20;99.90;;;;;;5015968;28;20027;-81
2022/09/01 06:26:20;;;;;;;;;;;15.30;99.90;;;;;;5032530;28;20020;-80
2022/09/01 06:28:46;;;;;;;;;;;15.30;99.90;;;;;;5032265;28;19929;-81
2022/09/01 06:31:13;;;;;;;;;;;15.40;99.90;;;;;;5048700;28;19941;-83
2022/09/01 06:33:39;;;;;;;;;;;15.50;99.90;;;;;;5048673;28;19977;-82
2022/09/01 06:36:05;;;;;;;;;;;15.60;99.90;;;;;;4999411;28;19925;-78
2022/09/01 06:38:30;;;;;;;;;;;15.60;99.90;;;;;;5048417;28;19948;-80
2022/09/01 06:41:03;;;;;;;;;;;15.70;99.90;;;;;;5015752;28;19926;-82
2022/09/01 06:43:29;;;;;;;;;;;15.80;99.90;;;;;;4999082;28;19936;-80
2022/09/01 06:45:55;;;;;;;;;;;15.80;99.90;;;;;;5015454;28;19965;-79
2022/09/01 06:48:22;;;;;;;;;;;15.90;99.90;;;;;;5015903;28;19996;-80
2022/09/01 06:50:48;;;;;;;;;;;16.00;99.90;;;;;;5032029;28;20024;-80
2022/09/01 06:53:15;;;;;;;;;;;16.10;99.90;;;;;;4999252;28;20022;-80
2022/09/01 06:55:42;;;;;;;;;;;16.20;99.90;;;;;;5048538;28;19936;-80
2022/09/01 06:58:12;;;;;;;;;;;16.30;99.90;;;;;;5031974;28;19976;-80
2022/09/01 07:00:40;;;;;;;;;;;16.40;99.90;;;;;;5015265;28;19925;-80
2022/09/01 07:03:10;;;;;;;;;;;16.50;99.90;;;;;;5032545;28;19933;-80
2022/09/01 07:05:40;;;;;;;;;;;16.60;99.90;;;;;;5014744;28;19930;-80
2022/09/01 07:08:08;;;;;;;;;;;16.60;99.90;;;;;;5031074;28;19932;-80
2022/09/01 07:10:38;;;;;;;;;;;16.60;99.90;;;;;;5014868;28;20368;-80
2022/09/01 07:13:06;;;;;;;;;;;16.70;99.90;;;;;;5031544;28;19964;-80
2022/09/01 07:15:32;;;;;;;;;;;16.80;99.90;;;;;;5031341;28;19988;-80
2022/09/01 07:17:58;;;;;;;;;;;16.90;99.90;;;;;;5032206;28;20016;-80
2022/09/01 07:20:25;;;;;;;;;;;17.00;99.90;;;;;;5014669;28;20008;-80
2022/09/01 07:22:52;;;;;;;;;;;17.10;99.90;;;;;;5031322;28;20081;-80
2022/09/01 07:25:19;;;;;;;;;;;17.30;99.90;;;;;;5014825;28;19926;-80
2022/09/01 07:27:48;;;;;;;;;;;17.40;99.90;;;;;;5031935;28;19926;-79
2022/09/01 07:30:14;;;;;;;;;;;17.50;99.90;;;;;;5047613;28;19925;-80
2022/09/01 07:32:42;;;;;;;;;;;17.50;99.90;;;;;;4998405;28;20016;-80
2022/09/01 07:35:08;;;;;;;;;;;17.60;99.90;;;;;;5014369;28;20278;-80
2022/09/01 07:37:36;;;;;;;;;;;17.60;99.90;;;;;;5014574;28;19932;-80
2022/09/01 07:40:07;;;;;;;;;;;17.60;99.90;;;;;;5015263;28;19925;-80
2022/09/01 07:42:33;;;;;;;;;;;17.70;99.90;;;;;;5014533;28;19975;-80
2022/09/01 07:44:59;;;;;;;;;;;17.80;99.90;;;;;;5015126;28;19925;-80
2022/09/01 07:47:28;;;;;;;;;;;17.90;99.90;;;;;;5047584;28;20337;-80
2022/09/01 07:49:54;;;;;;;;;;;17.90;99.90;;;;;;5014415;28;19932;-80
2022/09/01 07:52:20;;;;;;;;;;;18.00;99.90;;;;;;4997912;28;20012;-80
2022/09/01 07:54:45;;;;;;;;;;;18.00;99.90;;;;;;4998687;28;20020;-80
2022/09/01 07:57:11;;;;;;;;;;;18.10;99.90;;;;;;5014260;28;20028;-80
2022/09/01 07:59:37;;;;;;;;;;;18.20;99.90;;;;;;5030879;28;19929;-80
2022/09/01 08:02:04;;;;;;;;;;;18.20;99.90;;;;;;5047890;28;19997;-79
2022/09/01 08:04:30;;;;;;;;;;;18.30;99.90;;;;;;5046786;28;19930;-80
2022/09/01 08:06:56;;;;;;;;;;;18.40;99.90;;;;;;5014103;28;19979;-80
2022/09/01 08:09:22;;;;;;;;;;;18.50;99.90;;;;;;5030530;28;20021;-79
2022/09/01 08:11:47;;;;;;;;;;;18.70;99.90;;;;;;5047778;28;19944;-80
2022/09/01 08:14:13;;;;;;;;;;;18.80;99.90;;;;;;4997296;28;19977;-79
2022/09/01 08:16:38;;;;;;;;;;;18.90;99.90;;;;;;4997770;28;19926;-80
2022/09/01 08:19:04;;;;;;;;;;;19.10;99.90;;;;;;5013921;28;19972;-79
2022/09/01 08:21:29;;;;;;;;;;;19.10;99.90;;;;;;4998075;28;20266;-79
2022/09/01 08:23:55;;;;;;;;;;;19.20;99.90;;;;;;5013532;28;20012;-79
2022/09/01 08:26:23;;;;;;;;;;;19.30;99.90;;;;;;4997499;28;19926;-73
2022/09/01 08:28:49;;;;;;;;;;;19.30;99.90;;;;;;5013373;28;19931;-74
2022/09/01 08:31:16;;;;;;;;;;;19.40;99.90;;;;;;5029478;28;19933;-75
2022/09/01 08:33:42;;;;;;;;;;;19.50;99.90;;;;;;5029946;28;19952;-73
2022/09/01 08:36:09;;;;;;;;;;;19.50;99.90;;;;;;5013151;28;19925;-73
2022/09/01 08:38:34;;;;;;;;;;;19.80;99.90;;;;;;5029408;28;19929;-74
2022/09/01 08:41:02;;;;;;;;;;;20.00;99.90;;;;;;5013269;28;19937;-79
2022/09/01 08:43:42;;;;;;;;;;;20.10;99.90;;;;;;5029218;28;20266;-80
2022/09/01 08:46:29;;;;;;;;;;;20.30;99.90;;;;;;5012588;28;19948;-79
2022/09/01 08:48:56;;;;;;;;;;;20.40;99.90;;;;;;5012883;28;19925;-79
2022/09/01 08:51:36;;;;;;;;;;;20.60;99.90;;;;;;5029362;28;20403;-77
2022/09/01 08:54:20;;;;;;;;;;;20.70;99.90;;;;;;5013105;28;20008;-80
2022/09/01 08:56:48;;;;;;;;;;;20.70;99.90;;;;;;5029521;28;19980;-79
2022/09/01 08:59:14;;;;;;;;;;;20.80;99.90;;;;;;5012788;28;19929;-81
2022/09/01 09:01:49;;;;;;;;;;;20.80;99.90;;;;;;5030027;28;19930;-80
2022/09/01 09:04:41;;;;;;;;;;;20.70;99.90;;;;;;4996223;28;19926;-83
2022/09/01 09:07:18;;;;;;;;;;;20.80;99.90;;;;;;5011677;28;19972;-83
2022/09/01 09:09:48;;;;;;;;;;;20.70;99.90;;;;;;5012636;28;20064;-73
2022/09/01 09:12:25;;;;;;;;;;;20.80;99.90;;;;;;5012371;28;19988;-73
2022/09/01 09:15:22;;;;;;;;;;;20.80;99.90;;;;;;5012607;28;19932;-77
2022/09/01 09:17:58;;;;;;;;;;;20.90;99.90;;;;;;5008899;28;20250;-75
2022/09/01 09:20:25;;;;;;;;;;;21.00;99.90;;;;;;4995912;28;19926;-75
2022/09/01 09:22:52;;;;;;;;;;;21.10;99.90;;;;;;5012501;28;19925;-75
2022/09/01 09:25:18;;;;;;;;;;;21.20;99.90;;;;;;5012114;28;19976;-82
2022/09/01 09:27:45;;;;;;;;;;;21.30;99.90;;;;;;5045678;28;19931;-83
2022/09/01 09:30:12;;;;;;;;;;;21.40;99.90;;;;;;5012227;28;19929;-78
2022/09/01 09:32:52;;;;;;;;;;;21.60;99.90;;;;;;5015971;28;19992;-79
2022/09/01 09:35:23;;;;;;;;;;;21.60;99.90;;;;;;5032765;28;19932;-73
2022/09/01 09:37:49;;;;;;;;;;;21.60;99.90;;;;;;5017137;28;19925;-73
2022/09/01 09:40:17;;;;;;;;;;;21.60;99.90;;;;;;5016447;28;20302;-81
2022/09/01 09:42:55;;;;;;;;;;;21.60;99.90;;;;;;5017422;28;19976;-80
2022/09/01 09:45:24;;;;;;;;;;;21.80;99.90;;;;;;4999737;28;19936;-80
2022/09/01 09:47:51;;;;;;;;;;;21.70;99.90;;;;;;5016965;28;20018;-79
2022/09/01 09:50:16;;;;;;;;;;;21.90;99.90;;;;;;5016055;28;19980;-78
2022/09/01 09:52:45;;;;;;;;;;;22.00;99.90;;;;;;5016999;28;19988;-80
2022/09/01 09:55:17;;;;;;;;;;;22.10;99.90;;;;;;5048997;28;20014;-80
2022/09/01 09:57:43;;;;;;;;;;;22.30;99.90;;;;;;5049127;28;19932;-79
2022/09/01 10:00:12;;;;;;;;;;;22.30;99.90;;;;;;4999792;28;19926;-80
2022/09/01 10:02:39;;;;;;;;;;;22.30;99.90;;;;;;5049252;28;19925;-79
2022/09/01 10:05:25;;;;;;;;;;;22.30;99.90;;;;;;5015504;28;20016;-76
2022/09/01 10:07:51;;;;;;;;;;;22.30;99.90;;;;;;5032490;28;19929;-74
2022/09/01 10:10:44;;;;;;;;;;;22.40;99.90;;;;;;5048685;28;19926;-83
2022/09/01 10:13:20;;;;;;;;;;;22.60;99.90;;;;;;4999426;28;19929;-86
2022/09/01 10:15:47;;;;;;;;;;;22.60;99.90;;;;;;5016645;28;19972;-82
2022/09/01 10:18:17;;;;;;;;;;;22.60;99.90;;;;;;5015376;28;19969;-83
2022/09/01 10:20:45;;;;;;;;;;;22.70;99.90;;;;;;5016310;28;19925;-84
2022/09/01 10:23:10;;;;;;;;;;;22.70;99.90;;;;;;5032225;28;19929;-82
2022/09/01 10:25:37;;;;;;;;;;;22.70;99.90;;;;;;4999331;28;20289;-82
2022/09/01 10:28:04;;;;;;;;;;;22.70;99.90;;;;;;4999322;28;19925;-84
2022/09/01 10:30:29;;;;;;;;;;;22.70;99.90;;;;;;5048717;28;20020;-83
2022/09/01 10:32:57;;;;;;;;;;;22.80;99.90;;;;;;5015834;28;19968;-83
2022/09/01 10:35:28;;;;;;;;;;;22.90;99.90;;;;;;5016261;28;20380;-83
2022/09/01 10:37:55;;;;;;;;;;;23.00;99.90;;;;;;5016115;28;19926;-83
2022/09/01 10:40:27;;;;;;;;;;;23.10;99.90;;;;;;5015505;28;19936;-82
2022/09/01 10:42:55;;;;;;;;;;;23.10;99.90;;;;;;5031765;28;19929;-84
2022/09/01 10:45:34;;;;;;;;;;;23.10;99.90;;;;;;5015068;28;19936;-83
2022/09/01 10:48:26;;;;;;;;;;;23.00;99.90;;;;;;5031605;28;20293;-81
2022/09/01 10:50:54;;;;;;;;;;;22.90;99.90;;;;;;4998520;28;19925;-81
2022/09/01 10:53:32;;;;;;;;;;;23.10;99.90;;;;;;5015855;28;19975;-81
2022/09/01 10:56:13;;;;;;;;;;;23.00;99.90;;;;;;5015517;28;20337;-82
2022/09/01 10:58:57;;;;;;;;;;;23.20;99.90;;;;;;4998751;28;19925;-81
2022/09/01 11:01:38;;;;;;;;;;;23.30;99.90;;;;;;5014555;28;19926;-82
2022/09/01 11:04:05;;;;;;;;;;;23.10;99.90;;;;;;5014836;28;19925;-82
2022/09/01 11:06:53;;;;;;;;;;;22.80;99.90;;;;;;5015060;28;20361;-80
2022/09/01 11:09:24;;;;;;;;;;;22.70;99.90;;;;;;4997587;28;19926;-81
2022/09/01 11:12:16;;;;;;;;;;;22.60;99.90;;;;;;5031497;28;20315;-81
2022/09/01 11:14:48;;;;;;;;;;;22.60;99.90;;;;;;4997765;28;19926;-80
2022/09/01 11:17:19;;;;;;;;;;;22.90;99.90;;;;;;4998525;28;20031;-82
2022/09/01 11:19:54;;;;;;;;;;;23.20;99.90;;;;;;4998395;28;19925;-80
2022/09/01 11:22:34;;;;;;;;;;;23.30;99.90;;;;;;5014814;28;20025;-84
2022/09/01 11:25:06;;;;;;;;;;;23.20;99.90;;;;;;4998505;28;19921;-80
2022/09/01 11:27:47;;;;;;;;;;;23.30;99.90;;;;;;4998644;28;19925;-81
2022/09/01 11:30:17;;;;;;;;;;;23.60;99.50;;;;;;4997812;28;19925;-80
2022/09/01 11:32:44;;;;;;;;;;;23.60;99.70;;;;;;5014298;28;20392;-81
2022/09/01 11:35:15;;;;;;;;;;;23.50;99.70;;;;;;5014020;28;19975;-81
2022/09/01 11:37:41;;;;;;;;;;;23.60;99.40;;;;;;5030568;28;20008;-81
2022/09/01 11:40:08;;;;;;;;;;;23.80;99.20;;;;;;5030216;28;20325;-80
2022/09/01 11:42:42;;;;;;;;;;;24.50;99.50;;;;;;5047394;28;19926;-81
2022/09/01 11:45:14;;;;;;;;;;;25.10;98.70;;;;;;5030392;28;19926;-81
2022/09/01 11:47:42;;;;;;;;;;;25.40;98.10;;;;;;5047259;28;20138;-81
2022/09/01 11:50:19;;;;;;;;;;;25.50;97.90;;;;;;5013538;28;19925;-80
2022/09/01 11:52:55;;;;;;;;;;;25.20;96.70;;;;;;5014066;28;19999;-81
2022/09/01 11:55:35;;;;;;;;;;;24.90;97.00;;;;;;5013933;28;20273;-80
2022/09/01 11:58:01;;;;;;;;;;;24.80;97.10;;;;;;5014096;28;19984;-80
2022/09/01 12:00:28;;;;;;;;;;;24.70;97.60;;;;;;4997475;28;20008;-80
2022/09/01 12:02:54;;;;;;;;;;;24.90;97.20;;;;;;5013964;28;19925;-81
2022/09/01 12:05:23;;;;;;;;;;;25.40;97.10;;;;;;5046512;28;20262;-80
2022/09/01 12:07:49;;;;;;;;;;;25.60;96.90;;;;;;5047530;28;20282;-81
2022/09/01 12:10:20;;;;;;;;;;;25.50;96.50;;;;;;5013503;28;19925;-81
2022/09/01 12:12:46;;;;;;;;;;;25.40;94.70;;;;;;5014401;28;19948;-81
2022/09/01 12:15:25;;;;;;;;;;;25.80;94.50;;;;;;5014366;28;20334;-80
2022/09/01 12:17:51;;;;;;;;;;;25.90;95.00;;;;;;5030331;28;19937;-79
2022/09/01 12:20:27;;;;;;;;;;;25.60;93.60;;;;;;4997562;28;19933;-81
2022/09/01 12:22:54;;;;;;;;;;;25.30;93.50;;;;;;5030000;28;19925;-80
2022/09/01 12:25:22;;;;;;;;;;;25.00;93.90;;;;;;5013202;28;20412;-79
2022/09/01 12:27:48;;;;;;;;;;;25.00;94.20;;;;;;5013758;28;19932;-80
2022/09/01 12:30:14;;;;;;;;;;;25.00;94.10;;;;;;5013517;28;19925;-81
2022/09/01 12:32:40;;;;;;;;;;;25.20;94.80;;;;;;5047445;28;19940;-80
2022/09/01 12:35:13;;;;;;;;;;;25.60;94.40;;;;;;5014290;28;20350;-80
2022/09/01 12:37:38;;;;;;;;;;;26.20;93.30;;;;;;5013851;28;19950;-81
2022/09/01 12:40:04;;;;;;;;;;;26.90;92.90;;;;;;4997193;28;20300;-81
2022/09/01 12:42:31;;;;;;;;;;;27.50;91.80;;;;;;5046510;28;20361;-80
2022/09/01 12:44:58;;;;;;;;;;;27.70;90.70;;;;;;5014086;28;19940;-81
2022/09/01 12:47:34;;;;;;;;;;;28.00;90.40;;;;;;5013366;28;20020;-81
2022/09/01 12:50:00;;;;;;;;;;;28.20;90.60;;;;;;5046448;28;19968;-81
2022/09/01 12:52:26;;;;;;;;;;;28.60;88.70;;;;;;5046202;28;19937;-81
2022/09/01 12:54:52;;;;;;;;;;;29.00;89.60;;;;;;5013190;28;19926;-80
2022/09/01 12:57:36;;;;;;;;;;;28.40;88.00;;;;;;5013551;28;20066;-81
2022/09/01 13:00:19;;;;;;;;;;;27.90;86.00;;;;;;5013135;28;19925;-88
2022/09/01 13:03:05;;;;;;;;;;;27.30;87.60;;;;;;5014236;28;20377;-79
2022/09/01 13:05:41;;;;;;;;;;;27.60;88.60;;;;;;4995809;28;19952;-79
2022/09/01 13:08:08;;;;;;;;;;;27.50;86.90;;;;;;5029890;28;20292;-80
2022/09/01 13:10:42;;;;;;;;;;;27.20;86.70;;;;;;5029504;28;20009;-80
2022/09/01 13:13:08;;;;;;;;;;;26.90;87.10;;;;;;4996439;28;19929;-80
2022/09/01 13:15:34;;;;;;;;;;;27.00;85.20;;;;;;5013093;28;19926;-80
2022/09/01 13:18:00;;;;;;;;;;;27.20;86.10;;;;;;5012722;28;19925;-80
2022/09/01 13:20:26;;;;;;;;;;;27.30;88.20;;;;;;5046211;28;19933;-80
2022/09/01 13:22:53;;;;;;;;;;;27.20;88.70;;;;;;5012961;28;19933;-80
2022/09/01 13:25:19;;;;;;;;;;;27.40;88.30;;;;;;5029296;28;20374;-80
2022/09/01 13:27:46;;;;;;;;;;;27.80;90.50;;;;;;5029701;28;20281;-80
2022/09/01 13:30:16;;;;;;;;;;;28.30;91.00;;;;;;5012747;28;20361;-80
2022/09/01 13:32:43;;;;;;;;;;;28.80;90.50;;;;;;5013574;28;20397;-73
2022/09/01 13:35:09;;;;;;;;;;;29.00;90.00;;;;;;5012788;28;19976;-74
2022/09/01 13:37:35;;;;;;;;;;;29.30;87.50;;;;;;5028943;28;19926;-75
2022/09/01 13:40:01;;;;;;;;;;;29.70;88.10;;;;;;5013472;28;19929;-75
2022/09/01 13:42:26;;;;;;;;;;;29.80;87.30;;;;;;5012743;28;19926;-74
2022/09/01 13:44:52;;;;;;;;;;;30.20;88.40;;;;;;5012857;28;19949;-74
2022/09/01 13:47:17;;;;;;;;;;;30.70;88.90;;;;;;4995921;28;19925;-74
2022/09/01 13:49:43;;;;;;;;;;;31.10;88.10;;;;;;5013279;28;19925;-75
2022/09/01 13:52:09;;;;;;;;;;;31.60;85.00;;;;;;5012950;28;19925;-75
2022/09/01 13:54:34;;;;;;;;;;;31.90;83.60;;;;;;5013236;28;19933;-75
2022/09/01 13:57:00;;;;;;;;;;;32.10;84.50;;;;;;5013194;28;19999;-75
2022/09/01 13:59:26;;;;;;;;;;;32.30;85.10;;;;;;5013156;28;19925;-75
2022/09/01 14:01:51;;;;;;;;;;;32.30;84.80;;;;;;4996061;28;19979;-75
2022/09/01 14:04:18;;;;;;;;;;;32.70;84.90;;;;;;5011838;28;19925;-75
2022/09/01 14:06:44;;;;;;;;;;;32.70;79.80;;;;;;5045395;28;19925;-75
2022/09/01 14:09:10;;;;;;;;;;;32.30;79.40;;;;;;5011621;28;19991;-74
2022/09/01 14:11:36;;;;;;;;;;;31.30;79.30;;;;;;5013123;28;19926;-75
2022/09/01 14:14:02;;;;;;;;;;;30.60;80.00;;;;;;5011701;28;19925;-75
2022/09/01 14:16:27;;;;;;;;;;;30.20;80.80;;;;;;5028500;28;19933;-75
2022/09/01 14:18:53;;;;;;;;;;;30.40;81.20;;;;;;5015350;28;19972;-75
2022/09/01 14:21:19;;;;;;;;;;;30.90;79.70;;;;;;5016735;28;20012;-75
2022/09/01 14:23:45;;;;;;;;;;;31.10;78.00;;;;;;5015463;28;19932;-75
2022/09/01 14:26:14;;;;;;;;;;;31.40;77.40;;;;;;5032347;28;19952;-75
2022/09/01 14:28:44;;;;;;;;;;;31.70;75.50;;;;;;5016511;28;19983;-76